createdAt,value
2022-09-10T00:04:03.645Z,84.87
2022-09-10T00:14:03.752Z,87.65
2022-09-10T00:24:03.773Z,87.85
2022-09-10T00:34:04.106Z,85.31
2022-09-10T00:44:04.961Z,85.82
2022-09-10T00:54:04.452Z,86.22
2022-09-10T01:04:04.470Z,87.45
2022-09-10T01:14:04.813Z,87.89
2022-09-10T01:24:04.940Z,87.99
2022-09-10T01:34:05.160Z,86.88
2022-09-10T01:44:05.179Z,89.04
2022-09-10T01:54:05.511Z,89.70
2022-09-10T02:04:05.540Z,90.67
2022-09-10T02:14:05.849Z,89.90
2022-09-10T02:24:05.945Z,89.19
2022-09-10T02:34:06.098Z,86.35
2022-09-10T02:44:06.169Z,87.32
2022-09-10T02:54:06.554Z,91.51
2022-09-10T03:04:06.574Z,92.32
2022-09-10T03:14:06.904Z,92.52
2022-09-10T03:24:08.654Z,93.33
2022-09-10T03:34:07.262Z,93.70
2022-09-10T03:44:07.299Z,93.90
2022-09-10T03:54:07.599Z,94.82
2022-09-10T04:04:07.619Z,95.22
2022-09-10T04:14:07.949Z,94.71
2022-09-10T04:24:07.978Z,95.67
2022-09-10T04:34:08.306Z,95.26
2022-09-10T04:44:08.318Z,95.37
2022-09-10T04:54:08.754Z,96.28
2022-09-10T05:04:08.784Z,95.78
2022-09-10T05:14:09.095Z,92.83
2022-09-10T05:24:09.122Z,92.32
2022-09-10T05:34:09.455Z,93.54
2022-09-10T05:44:09.481Z,94.20
2022-09-10T05:54:09.804Z,94.45
2022-09-10T06:04:09.821Z,95.37
2022-09-10T06:14:10.152Z,93.13
2022-09-10T06:24:10.178Z,92.74
2022-09-10T06:34:10.499Z,94.26
2022-09-10T06:44:10.525Z,94.71
2022-09-10T06:54:10.858Z,95.12
2022-09-10T07:04:10.879Z,94.82
2022-09-10T07:14:11.200Z,96.34
2022-09-10T07:24:11.213Z,96.95
2022-09-10T07:34:11.554Z,96.23
2022-09-10T07:44:11.573Z,96.23
2022-09-10T07:54:11.903Z,94.98
2022-09-10T08:04:12.708Z,94.98
2022-09-10T08:14:12.257Z,95.64
2022-09-10T08:24:12.280Z,94.62
2022-09-10T08:34:12.700Z,94.02
2022-09-10T08:44:12.724Z,93.57
2022-09-10T08:54:13.051Z,93.32
2022-09-10T09:04:13.077Z,90.99
2022-09-10T09:14:14.357Z,91.80
2022-09-10T09:24:14.087Z,90.95
2022-09-10T09:34:13.548Z,91.41
2022-09-10T09:44:13.578Z,90.64
2022-09-10T09:54:46.478Z,90.40
2022-09-10T10:04:14.996Z,92.93
2022-09-10T10:14:14.227Z,92.00
2022-09-10T10:24:14.525Z,93.52
2022-09-10T10:34:15.340Z,94.34
2022-09-10T10:44:14.765Z,94.24
2022-09-10T10:54:15.171Z,93.88
2022-09-10T11:04:15.325Z,92.68
2022-09-10T11:14:15.427Z,90.53
2022-09-10T11:24:17.179Z,81.18
2022-09-10T11:34:15.595Z,73.68
2022-09-10T11:44:16.033Z,72.94
2022-09-10T11:54:25.273Z,68.85
2022-09-10T12:04:16.306Z,68.28
2022-09-10T12:14:23.856Z,66.33
2022-09-10T12:24:16.865Z,67.74
2022-09-10T12:34:17.005Z,66.83
2022-09-10T12:44:17.056Z,63.25
2022-09-10T12:54:17.355Z,73.04
2022-09-10T13:04:17.384Z,77.51
2022-09-10T13:14:17.712Z,75.84
2022-09-10T13:24:17.735Z,73.45
2022-09-10T13:34:18.062Z,72.67
2022-09-10T13:44:18.395Z,74.29
2022-09-10T13:54:18.395Z,75.80
2022-09-10T14:04:18.424Z,75.23
2022-09-10T14:14:18.752Z,78.25
2022-09-10T14:24:18.766Z,71.30
2022-09-10T14:34:19.112Z,69.53
2022-09-10T14:44:19.168Z,65.42
2022-09-10T14:54:19.449Z,69.19
2022-09-10T15:04:19.579Z,66.19
2022-09-10T15:14:19.717Z,64.75
2022-09-10T15:24:19.762Z,69.02
2022-09-10T15:34:20.159Z,71.47
2022-09-10T15:44:20.180Z,73.75
2022-09-10T15:54:20.422Z,76.77
2022-09-10T16:04:20.649Z,79.33
2022-09-10T16:14:21.059Z,80.60
2022-09-10T16:24:21.136Z,78.42
2022-09-10T16:34:21.189Z,78.22
2022-09-10T16:44:21.427Z,84.35
2022-09-10T16:54:21.760Z,87.07
2022-09-10T17:04:27.637Z,88.89
2022-09-10T17:14:22.849Z,89.23
2022-09-10T17:24:22.190Z,86.75
2022-09-10T17:34:22.232Z,86.45
2022-09-10T17:44:22.732Z,85.74
2022-09-10T17:54:22.566Z,84.81
2022-09-10T18:04:22.879Z,86.83
2022-09-10T18:14:22.901Z,87.64
2022-09-10T18:24:23.482Z,88.55
2022-09-10T18:34:23.667Z,90.11
2022-09-10T18:44:23.744Z,90.58
2022-09-10T18:54:23.736Z,89.87
2022-09-10T19:04:23.981Z,91.22
2022-09-10T19:14:23.989Z,91.16
2022-09-10T19:24:37.757Z,90.36
2022-09-10T19:34:25.431Z,90.76
2022-09-10T19:44:24.796Z,90.40
2022-09-10T19:54:24.708Z,90.93
2022-09-10T20:04:25.110Z,88.82
2022-09-10T20:14:25.278Z,89.63
2022-09-10T20:24:25.364Z,90.75
2022-09-10T20:34:25.427Z,91.35
2022-09-10T20:44:25.687Z,91.75
2022-09-10T20:54:25.931Z,90.48
2022-09-10T21:04:26.239Z,91.70
2022-09-10T21:14:26.292Z,92.61
2022-09-10T21:24:26.584Z,92.35
2022-09-10T21:34:26.602Z,92.65
2022-09-10T21:44:26.935Z,91.94
2022-09-10T21:54:26.968Z,91.09
2022-09-10T22:04:27.280Z,90.08
2022-09-10T22:14:27.299Z,89.98
2022-09-10T22:24:27.640Z,91.85
2022-09-10T22:34:27.629Z,93.61
2022-09-10T22:44:27.978Z,93.00
2022-09-10T22:54:28.001Z,92.60
2022-09-10T23:04:28.333Z,94.57
2022-09-10T23:14:28.364Z,94.57
2022-09-10T23:24:28.676Z,94.62
2022-09-10T23:34:28.695Z,92.40
2022-09-10T23:44:29.033Z,92.70
2022-09-10T23:54:29.051Z,94.02
